Time,TemperatureF,DewpointF,PressureIn,WindDirection,WindDirectionDegrees,WindSpeedMPH,WindSpeedGustMPH,Humidity,HourlyPrecipIn,Conditions,Clouds,dailyrainin,SoftwareType,DateUTC
2013-11-26 00:03:00,28.0,24.0,29.97,SSW,194,2.0,12.0,84,0.00,,,0.00,,2013-11-26 05:03:00,
2013-11-26 00:43:00,27.0,23.0,29.96,South,189,3.0,12.0,84,0.00,,,0.00,,2013-11-26 05:43:00,
2013-11-26 00:53:00,27.0,23.0,29.96,South,189,3.0,12.0,84,0.00,,,0.00,,2013-11-26 05:53:00,
2013-11-26 01:02:00,27.0,23.0,29.96,South,189,3.0,12.0,84,0.00,,,0.00,,2013-11-26 06:02:00,
2013-11-26 02:42:00,28.0,24.0,29.93,SSW,195,2.0,12.0,85,0.00,,,0.00,,2013-11-26 07:42:00,
2013-11-26 02:52:00,28.0,24.0,29.93,SSW,195,2.0,12.0,85,0.00,,,0.00,,2013-11-26 07:52:00,
2013-11-26 03:02:00,28.0,24.0,29.93,SSW,195,2.0,12.0,85,0.00,,,0.00,,2013-11-26 08:02:00,
2013-11-26 03:42:00,29.0,25.0,29.93,SW,219,1.0,9.0,84,0.00,,,0.00,,2013-11-26 08:42:00,
2013-11-26 03:52:00,29.0,25.0,29.93,SW,219,1.0,9.0,84,0.00,,,0.00,,2013-11-26 08:52:00,
2013-11-26 04:02:00,29.0,25.0,29.93,SW,219,1.0,9.0,84,0.00,,,0.00,,2013-11-26 09:02:00,
2013-11-26 04:44:00,29.0,25.0,29.94,SSW,203,1.0,9.0,83,0.00,,,0.00,,2013-11-26 09:44:00,
2013-11-26 04:54:00,29.0,25.0,29.94,SSW,203,1.0,9.0,83,0.00,,,0.00,,2013-11-26 09:54:00,
2013-11-26 05:03:00,29.0,25.0,29.94,SSW,203,1.0,9.0,83,0.00,,,0.00,,2013-11-26 10:03:00,
2013-11-26 05:43:00,29.0,24.0,29.93,West,268,2.0,12.0,82,0.00,,,0.00,,2013-11-26 10:43:00,
2013-11-26 05:53:00,29.0,24.0,29.93,West,268,2.0,12.0,82,0.00,,,0.00,,2013-11-26 10:53:00,
2013-11-26 06:02:00,29.0,24.0,29.93,West,268,2.0,12.0,82,0.00,,,0.00,,2013-11-26 11:02:00,
2013-11-26 06:42:00,30.0,25.0,29.93,SW,230,1.0,7.0,82,0.00,,,0.00,,2013-11-26 11:42:00,
2013-11-26 06:53:00,30.0,25.0,29.93,SW,230,1.0,7.0,82,0.00,,,0.00,,2013-11-26 11:53:00,
2013-11-26 07:02:00,30.0,25.0,29.93,SW,230,1.0,7.0,82,0.00,,,0.00,,2013-11-26 12:02:00,
2013-11-26 07:42:00,29.0,25.0,29.92,SSW,199,0.0,6.0,83,0.00,,,0.00,,2013-11-26 12:42:00,
2013-11-26 07:52:00,29.0,25.0,29.92,SSW,199,0.0,6.0,83,0.00,,,0.00,,2013-11-26 12:52:00,
2013-11-26 08:42:00,30.0,25.0,29.94,WSW,258,2.0,8.0,81,0.00,,,0.00,,2013-11-26 13:42:00,
2013-11-26 08:52:00,30.0,25.0,29.94,WSW,258,2.0,8.0,81,0.00,,,0.00,,2013-11-26 13:52:00,
2013-11-26 09:02:00,30.0,25.0,29.94,WSW,258,2.0,8.0,81,0.00,,,0.00,,2013-11-26 14:02:00,
2013-11-26 09:42:00,30.0,20.0,29.96,NW,307,2.0,12.0,67,0.00,,,0.00,,2013-11-26 14:42:00,
2013-11-26 09:52:00,30.0,20.0,29.96,NW,307,2.0,12.0,67,0.00,,,0.00,,2013-11-26 14:52:00,
2013-11-26 10:02:00,30.0,20.0,29.96,NW,307,2.0,12.0,67,0.00,,,0.00,,2013-11-26 15:02:00,
2013-11-26 10:43:00,28.0,16.0,29.96,NW,308,5.0,15.0,61,0.00,,,0.00,,2013-11-26 15:43:00,
2013-11-26 10:54:00,28.0,16.0,29.96,NW,308,5.0,15.0,61,0.00,,,0.00,,2013-11-26 15:54:00,
2013-11-26 11:04:00,28.0,16.0,29.96,NW,308,5.0,15.0,61,0.00,,,0.00,,2013-11-26 16:04:00,
2013-11-26 11:43:00,28.0,15.0,29.97,WNW,297,3.0,15.0,58,0.00,,,0.00,,2013-11-26 16:43:00,
2013-11-26 11:54:00,28.0,15.0,29.97,WNW,297,3.0,15.0,58,0.00,,,0.00,,2013-11-26 16:54:00,
2013-11-26 12:03:00,28.0,15.0,29.97,WNW,297,3.0,15.0,58,0.00,,,0.00,,2013-11-26 17:03:00,
2013-11-26 12:43:00,27.0,11.0,29.96,NNW,328,1.0,13.0,51,0.00,,,0.00,,2013-11-26 17:43:00,
2013-11-26 12:53:00,27.0,11.0,29.96,NNW,328,1.0,13.0,51,0.00,,,0.00,,2013-11-26 17:53:00,
2013-11-26 13:02:00,27.0,11.0,29.96,NNW,328,1.0,13.0,51,0.00,,,0.00,,2013-11-26 18:02:00,
2013-11-26 13:42:00,28.0,9.0,29.96,NW,323,2.0,15.0,45,0.00,,,0.00,,2013-11-26 18:42:00,
2013-11-26 13:53:00,28.0,9.0,29.96,NW,323,2.0,15.0,45,0.00,,,0.00,,2013-11-26 18:53:00,
2013-11-26 14:03:00,28.0,9.0,29.96,NW,323,2.0,15.0,45,0.00,,,0.00,,2013-11-26 19:03:00,
2013-11-26 14:42:00,29.0,10.0,29.95,NNW,347,2.0,12.0,45,0.00,,,0.00,,2013-11-26 19:42:00,
2013-11-26 14:52:00,29.0,10.0,29.95,NNW,347,2.0,12.0,45,0.00,,,0.00,,2013-11-26 19:52:00,
2013-11-26 15:02:00,29.0,10.0,29.95,NNW,347,2.0,12.0,45,0.00,,,0.00,,2013-11-26 20:02:00,
2013-11-26 16:44:00,27.0,15.0,29.97,NW,311,3.0,16.0,61,0.00,,,0.00,,2013-11-26 21:44:00,
2013-11-26 16:53:00,27.0,15.0,29.97,NW,311,3.0,16.0,61,0.00,,,0.00,,2013-11-26 21:53:00,
2013-11-26 17:03:00,27.0,15.0,29.97,NW,311,3.0,16.0,61,0.00,,,0.00,,2013-11-26 22:03:00,
2013-11-26 17:43:00,24.0,18.0,30.00,NW,316,3.0,16.0,76,0.00,,,0.00,,2013-11-26 22:43:00,
2013-11-26 17:53:00,24.0,18.0,30.00,NW,316,3.0,16.0,76,0.00,,,0.00,,2013-11-26 22:53:00,
2013-11-26 18:02:00,24.0,18.0,30.00,NW,316,3.0,16.0,76,0.00,,,0.00,,2013-11-26 23:02:00,
2013-11-26 18:43:00,22.0,13.0,30.03,WNW,291,3.0,14.0,69,0.00,,,0.00,,2013-11-26 23:43:00,
2013-11-26 18:53:00,22.0,13.0,30.03,WNW,291,3.0,14.0,69,0.00,,,0.00,,2013-11-26 23:53:00,
2013-11-26 19:02:00,22.0,13.0,30.03,WNW,291,3.0,14.0,69,0.00,,,0.00,,2013-11-27 00:02:00,
2013-11-26 19:42:00,19.0,11.0,30.06,NW,307,5.0,16.0,69,0.00,,,0.00,,2013-11-27 00:42:00,
2013-11-26 19:52:00,19.0,11.0,30.06,NW,307,5.0,16.0,69,0.00,,,0.00,,2013-11-27 00:52:00,
2013-11-26 20:02:00,19.0,11.0,30.06,NW,307,5.0,16.0,69,0.00,,,0.00,,2013-11-27 01:02:00,
2013-11-26 20:42:00,17.0,6.0,30.08,NW,319,5.0,16.0,61,0.00,,,0.00,,2013-11-27 01:42:00,
2013-11-26 20:52:00,17.0,6.0,30.08,NW,319,5.0,16.0,61,0.00,,,0.00,,2013-11-27 01:52:00,
2013-11-26 21:02:00,17.0,6.0,30.08,NW,319,5.0,16.0,61,0.00,,,0.00,,2013-11-27 02:02:00,
2013-11-26 21:42:00,16.0,4.0,30.09,NW,314,6.0,17.0,58,0.00,,,0.00,,2013-11-27 02:42:00,
2013-11-26 21:52:00,16.0,4.0,30.09,NW,314,6.0,17.0,58,0.00,,,0.00,,2013-11-27 02:52:00,
2013-11-26 22:02:00,16.0,4.0,30.09,NW,314,6.0,17.0,58,0.00,,,0.00,,2013-11-27 03:02:00,
2013-11-26 22:44:00,15.0,4.0,30.10,NW,308,3.0,15.0,61,0.00,,,0.00,,2013-11-27 03:44:00,
2013-11-26 22:54:00,15.0,4.0,30.10,NW,308,3.0,15.0,61,0.00,,,0.00,,2013-11-27 03:54:00,
2013-11-26 23:04:00,15.0,4.0,30.10,NW,308,3.0,15.0,61,0.00,,,0.00,,2013-11-27 04:04:00,
2013-11-26 23:43:00,15.0,4.0,30.11,NW,320,3.0,13.0,60,0.00,,,0.00,,2013-11-27 04:43:00,
2013-11-26 23:53:00,15.0,4.0,30.11,NW,320,3.0,13.0,60,0.00,,,0.00,,2013-11-27 04:53:00,